Time;durP1;ratioP1;P1;durP2;ratioP2;P2;SDS_P1;SDS_P2;PMS_P1;PMS_P2;Temp;Humidity;BMP_temperature;BMP_pressure;BME280_temperature;BME280_humidity;BME280_pressure;Samples;Min_cycle;Max_cycle;Signal;HPM_P1;HPM_P2
2021/03/05 00:00:30;;;;;;;;;;;;;;;5.24;100.00;100465.97;1745568;82;20399;-51
2021/03/05 00:02:58;;;;;;;;;;;;;;;5.23;100.00;100473.98;1745608;82;22795;-51
2021/03/05 00:05:27;;;;;;;;;;;;;;;5.18;100.00;100466.52;1744568;82;20265;-51
2021/03/05 00:07:57;;;;;;;;;;;;;;;5.15;100.00;100469.66;1745523;82;20143;-51
2021/03/05 00:10:26;;;;;;;;;;;;;;;5.11;100.00;100469.29;1745447;82;20221;-51
2021/03/05 00:12:54;;;;;;;;;;;;;;;5.09;100.00;100485.72;1745524;82;20518;-52
2021/03/05 00:15:22;;;;;;;;;;;;;;;5.07;100.00;100482.20;1745556;82;21544;-51
2021/03/05 00:17:50;;;;;;;;;;;;;;;5.06;100.00;100468.50;1745389;82;20230;-51
2021/03/05 00:20:22;;;;;;;;;;;;;;;5.04;100.00;100467.65;1737269;81;20282;-52
2021/03/05 00:22:50;;;;;;;;;;;;;;;5.02;100.00;100468.98;1737007;82;20242;-51
2021/03/05 00:25:18;;;;;;;;;;;;;;;5.01;100.00;100473.02;1737085;82;20309;-52
2021/03/05 00:27:47;;;;;;;;;;;;;;;5.00;100.00;100482.75;1737032;82;21216;-51
2021/03/05 00:30:16;;;;;;;;;;;;;;;4.99;100.00;100473.50;1737069;82;20222;-52
2021/03/05 00:32:43;;;;;;;;;;;;;;;4.99;100.00;100457.09;1737121;81;20410;-51
2021/03/05 00:35:12;;;;;;;;;;;;;;;5.01;100.00;100454.42;1737140;82;20306;-52
2021/03/05 00:37:40;;;;;;;;;;;;;;;5.04;100.00;100446.39;1736951;82;20226;-52
2021/03/05 00:40:09;;;;;;;;;;;;;;;5.06;100.00;100452.55;1737114;82;21208;-52
2021/03/05 00:42:37;;;;;;;;;;;;;;;5.09;100.00;100453.83;1737074;82;20629;-51
2021/03/05 00:45:06;;;;;;;;;;;;;;;5.11;100.00;100454.67;1760496;81;20212;-51
2021/03/05 00:47:34;;;;;;;;;;;;;;;5.11;100.00;100440.05;1767376;81;20228;-51
2021/03/05 00:50:04;;;;;;;;;;;;;;;5.09;100.00;100440.54;1767403;81;20223;-52
2021/03/05 00:52:31;;;;;;;;;;;;;;;5.07;100.00;100426.84;1767478;81;21195;-51
2021/03/05 00:54:59;;;;;;;;;;;;;;;5.06;100.00;100419.34;1767307;81;20228;-52
2021/03/05 00:57:28;;;;;;;;;;;;;;;5.04;100.00;100418.92;1767448;81;20272;-52
2021/03/05 00:59:56;;;;;;;;;;;;;;;5.02;100.00;100421.62;1767415;81;20221;-52
2021/03/05 01:02:23;;;;;;;;;;;;;;;5.02;100.00;100414.52;1767500;81;20223;-51
2021/03/05 01:04:52;;;;;;;;;;;;;;;5.01;100.00;100402.13;1767415;81;21470;-51
2021/03/05 01:07:19;;;;;;;;;;;;;;;4.98;100.00;100405.32;1767447;81;20228;-52
2021/03/05 01:09:47;;;;;;;;;;;;;;;4.95;100.00;100405.34;1767448;81;20216;-52
2021/03/05 01:12:14;;;;;;;;;;;;;;;4.95;100.00;100407.56;1767429;81;20220;-52
2021/03/05 01:14:41;;;;;;;;;;;;;;;4.95;100.00;100410.22;1767497;81;20240;-52
2021/03/05 01:17:09;;;;;;;;;;;;;;;4.98;100.00;100405.32;1767424;81;21207;-52
2021/03/05 01:19:36;;;;;;;;;;;;;;;5.00;100.00;100402.19;1772399;80;20660;-52
2021/03/05 01:22:04;;;;;;;;;;;;;;;5.00;100.00;100396.86;1776187;80;20232;-52
2021/03/05 01:24:31;;;;;;;;;;;;;;;4.97;100.00;100394.23;1776224;80;20275;-52
2021/03/05 01:27:00;;;;;;;;;;;;;;;4.91;100.00;100404.98;1775858;80;20219;-51
2021/03/05 01:29:28;;;;;;;;;;;;;;;4.86;100.00;100395.75;1776186;81;21532;-52
2021/03/05 01:31:56;;;;;;;;;;;;;;;4.84;100.00;100401.11;1775982;81;20236;-51
2021/03/05 01:34:23;;;;;;;;;;;;;;;4.83;100.00;100406.43;1776254;81;20216;-51
2021/03/05 01:36:51;;;;;;;;;;;;;;;4.77;100.00;100403.88;1776087;81;20223;-51
2021/03/05 01:39:18;;;;;;;;;;;;;;;4.71;100.00;100397.78;1776199;81;20256;-51
2021/03/05 01:41:46;;;;;;;;;;;;;;;4.69;100.00;100409.31;1776148;80;21280;-51
2021/03/05 01:44:13;;;;;;;;;;;;;;;4.64;100.00;100404.10;1776038;81;20216;-51
2021/03/05 01:46:40;;;;;;;;;;;;;;;4.57;100.00;100401.98;1776216;81;20219;-51
2021/03/05 01:49:08;;;;;;;;;;;;;;;4.54;100.00;100402.05;1776092;81;20271;-51
2021/03/05 01:51:36;;;;;;;;;;;;;;;4.54;100.00;100400.72;1776301;81;20223;-51
2021/03/05 01:54:05;;;;;;;;;;;;;;;4.52;100.00;100399.83;1776203;80;21195;-51
2021/03/05 01:56:43;;;;;;;;;;;;;;;4.51;100.00;100407.38;1776172;81;20635;-51
2021/03/05 01:59:16;;;;;;;;;;;;;;;4.48;100.00;100399.45;1776196;81;20275;-52
2021/03/05 02:01:43;;;;;;;;;;;;;;;4.43;100.00;100393.34;1776237;81;20782;-51
2021/03/05 02:04:11;;;;;;;;;;;;;;;4.37;100.00;100396.11;1776149;80;20244;-51
2021/03/05 02:06:40;;;;;;;;;;;;;;;4.34;100.00;100398.81;1774132;81;21196;-52
2021/03/05 02:09:08;;;;;;;;;;;;;;;4.30;100.00;100386.89;1776134;81;20279;-52
2021/03/05 02:11:37;;;;;;;;;;;;;;;4.32;100.00;100385.55;1776031;80;20215;-52
2021/03/05 02:14:07;;;;;;;;;;;;;;;4.34;100.00;100385.54;1776124;81;20215;-51
2021/03/05 02:16:53;;;;;;;;;;;;;;;4.34;100.00;100388.20;1776162;80;20220;-51
2021/03/05 02:20:00;;;;;;;;;;;;;;;4.29;100.00;100395.75;1781461;79;21221;-52
2021/03/05 02:23:01;;;;;;;;;;;;;;;4.27;100.00;100396.69;1792970;80;20210;-51
2021/03/05 02:26:03;;;;;;;;;;;;;;;4.24;100.00;100398.06;1792643;80;20242;-51
2021/03/05 02:28:37;;;;;;;;;;;;;;;4.20;100.00;100397.22;1793102;80;20221;-51
2021/03/05 02:31:14;;;;;;;;;;;;;;;4.18;100.00;100392.39;1792912;80;20477;-51
2021/03/05 02:33:53;;;;;;;;;;;;;;;4.18;100.00;100396.37;1793037;80;21372;-51
2021/03/05 02:36:23;;;;;;;;;;;;;;;4.18;100.00;100399.03;1793001;80;20217;-51
2021/03/05 02:39:04;;;;;;;;;;;;;;;4.17;100.00;100401.25;1793142;80;20218;-51
2021/03/05 02:41:32;;;;;;;;;;;;;;;4.18;100.00;100401.68;1784659;80;20278;-51
2021/03/05 02:43:59;;;;;;;;;;;;;;;4.14;100.00;100407.94;1776784;80;20279;-51
2021/03/05 02:46:27;;;;;;;;;;;;;;;4.13;100.00;100409.69;1754131;82;21196;-51
2021/03/05 02:48:57;;;;;;;;;;;;;;;4.09;100.00;100408.42;1753926;82;20137;-50
2021/03/05 02:51:25;;;;;;;;;;;;;;;4.06;100.00;100413.34;1754105;82;20241;-50
2021/03/05 02:53:53;;;;;;;;;;;;;;;4.01;100.00;100413.39;1754056;82;20248;-52
2021/03/05 02:56:20;;;;;;;;;;;;;;;4.00;100.00;100414.30;1754057;82;20220;-51
2021/03/05 02:58:49;;;;;;;;;;;;;;;3.97;100.00;100418.31;1754124;82;21375;-52
2021/03/05 03:01:16;;;;;;;;;;;;;;;3.97;100.00;100415.66;1753953;82;20233;-52
2021/03/05 03:03:44;;;;;;;;;;;;;;;3.98;100.00;100415.23;1754091;82;20216;-52
2021/03/05 03:06:12;;;;;;;;;;;;;;;3.98;100.00;100418.74;1753982;82;20220;-52
2021/03/05 03:08:39;;;;;;;;;;;;;;;3.96;100.00;100423.63;1754156;82;20241;-52
2021/03/05 03:11:07;;;;;;;;;;;;;;;3.96;100.00;100423.20;1753993;82;21209;-52
2021/03/05 03:13:36;;;;;;;;;;;;;;;3.94;100.00;100421.02;1753972;82;20229;-52
2021/03/05 03:16:04;;;;;;;;;;;;;;;3.91;100.00;100425.03;1754028;82;20241;-52
2021/03/05 03:18:33;;;;;;;;;;;;;;;3.86;100.00;100423.76;1754075;82;20228;-52
2021/03/05 03:21:01;;;;;;;;;;;;;;;3.85;100.00;100422.44;1744155;82;20246;-52
2021/03/05 03:23:28;;;;;;;;;;;;;;;3.82;100.00;100427.78;1742375;82;21672;-52
2021/03/05 03:25:57;;;;;;;;;;;;;;;3.73;100.00;100443.35;1742227;82;20223;-52
2021/03/05 03:28:24;;;;;;;;;;;;;;;3.66;100.00;100441.25;1737422;82;20234;-52
2021/03/05 03:30:51;;;;;;;;;;;;;;;3.57;100.00;100433.37;1742517;82;20735;-52
2021/03/05 03:33:18;;;;;;;;;;;;;;;3.49;100.00;100429.94;1742525;82;20559;-52
2021/03/05 03:35:46;;;;;;;;;;;;;;;3.40;100.00;100444.17;1742432;82;21382;-52
2021/03/05 03:38:14;;;;;;;;;;;;;;;3.34;100.00;100440.27;1742319;82;20374;-51
2021/03/05 03:40:42;;;;;;;;;;;;;;;3.27;100.00;100414.27;1742381;82;20273;-51
2021/03/05 03:43:09;;;;;;;;;;;;;;;3.28;100.00;100431.92;1742302;82;20229;-51
2021/03/05 03:45:38;;;;;;;;;;;;;;;3.27;100.00;100435.47;1772109;81;20239;-51
2021/03/05 03:48:07;;;;;;;;;;;;;;;3.27;100.00;100408.97;1772356;81;21373;-51
2021/03/05 03:50:41;;;;;;;;;;;;;;;3.28;100.00;100410.73;1772291;81;20213;-51
2021/03/05 03:53:20;;;;;;;;;;;;;;;3.26;100.00;100413.37;1772334;81;20538;-51
2021/03/05 03:55:53;;;;;;;;;;;;;;;3.26;100.00;100400.59;1772339;81;20153;-51
2021/03/05 03:58:21;;;;;;;;;;;;;;;3.27;100.00;100395.26;1772377;81;20252;-53
2021/03/05 04:00:51;;;;;;;;;;;;;;;3.31;100.00;100406.72;1772348;81;21215;-51
2021/03/05 04:03:19;;;;;;;;;;;;;;;3.39;100.00;100390.27;1772290;81;20236;-51
2021/03/05 04:05:48;;;;;;;;;;;;;;;3.42;100.00;100390.23;1772030;81;20287;-51
2021/03/05 04:08:17;;;;;;;;;;;;;;;3.48;100.00;100389.76;1768921;81;20221;-51
2021/03/05 04:10:44;;;;;;;;;;;;;;;3.52;100.00;100386.17;1772330;81;20216;-51
2021/03/05 04:13:13;;;;;;;;;;;;;;;3.56;100.00;100389.20;1742377;81;21568;-51
2021/03/05 04:15:40;;;;;;;;;;;;;;;3.61;100.00;100387.38;1772377;81;20307;-51
2021/03/05 04:18:07;;;;;;;;;;;;;;;3.67;100.00;100387.75;1772413;81;20378;-52
2021/03/05 04:20:37;;;;;;;;;;;;;;;3.71;100.00;100390.36;1765277;81;20284;-52
2021/03/05 04:23:06;;;;;;;;;;;;;;;3.72;100.00;100385.48;1758877;81;20469;-51
2021/03/05 04:25:34;;;;;;;;;;;;;;;3.73;100.00;100384.58;1733991;81;21215;-52
2021/03/05 04:28:02;;;;;;;;;;;;;;;3.73;100.00;100381.94;1758712;81;20224;-52
2021/03/05 04:30:29;;;;;;;;;;;;;;;3.76;100.00;100376.16;1758852;81;20224;-52
2021/03/05 04:32:57;;;;;;;;;;;;;;;3.76;100.00;100380.13;1758766;81;20371;-51
2021/03/05 04:35:24;;;;;;;;;;;;;;;3.76;100.00;100385.44;1758828;81;20240;-51
2021/03/05 04:37:52;;;;;;;;;;;;;;;3.75;100.00;100383.69;1758769;81;21676;-51
2021/03/05 04:40:19;;;;;;;;;;;;;;;3.76;100.00;100389.41;1758831;81;20265;-51
2021/03/05 04:42:47;;;;;;;;;;;;;;;3.78;100.00;100396.91;1758735;81;20216;-52
2021/03/05 04:45:15;;;;;;;;;;;;;;;3.78;100.00;100394.25;1753440;81;20250;-51
2021/03/05 04:47:42;;;;;;;;;;;;;;;3.80;100.00;100396.00;1752445;82;20245;-52
2021/03/05 04:50:10;;;;;;;;;;;;;;;3.73;100.00;100395.19;1752347;82;21264;-51
2021/03/05 04:52:38;;;;;;;;;;;;;;;3.71;100.00;100402.29;1752391;82;20307;-52
2021/03/05 04:55:06;;;;;;;;;;;;;;;3.79;100.00;100394.67;1752380;82;20222;-52
2021/03/05 04:57:33;;;;;;;;;;;;;;;3.95;100.00;100408.17;1752357;82;20240;-52
2021/03/05 05:00:02;;;;;;;;;;;;;;;4.08;100.00;100405.34;1752346;82;20249;-52
2021/03/05 05:02:29;;;;;;;;;;;;;;;4.13;100.00;100408.84;1752407;82;21202;-51
2021/03/05 05:04:57;;;;;;;;;;;;;;;4.07;100.00;100407.56;1752285;82;20219;-52
2021/03/05 05:07:25;;;;;;;;;;;;;;;4.01;100.00;100404.58;1752379;82;20221;-52
2021/03/05 05:09:52;;;;;;;;;;;;;;;4.06;100.00;100410.69;1752293;82;20113;-52
2021/03/05 05:12:19;;;;;;;;;;;;;;;4.11;100.00;100414.61;1752415;82;20229;-51
2021/03/05 05:14:47;;;;;;;;;;;;;;;4.14;100.00;100419.41;1752465;82;21449;-52
2021/03/05 05:17:14;;;;;;;;;;;;;;;4.09;100.00;100422.58;1752283;82;20220;-52
2021/03/05 05:19:43;;;;;;;;;;;;;;;4.01;100.00;100425.33;1752820;81;20505;-52
2021/03/05 05:22:10;;;;;;;;;;;;;;;3.78;100.00;100436.68;1771220;81;20280;-52
2021/03/05 05:24:38;;;;;;;;;;;;;;;3.59;100.00;100434.23;1771355;81;20299;-51
2021/03/05 05:27:06;;;;;;;;;;;;;;;3.48;100.00;100436.14;1771251;81;21211;-52
2021/03/05 05:29:33;;;;;;;;;;;;;;;3.32;100.00;100444.24;1771186;81;20243;-51
2021/03/05 05:32:00;;;;;;;;;;;;;;;3.18;100.00;100451.44;1771151;81;20223;-52
2021/03/05 05:34:28;;;;;;;;;;;;;;;3.14;100.00;100461.20;1771259;81;20271;-52
2021/03/05 05:36:55;;;;;;;;;;;;;;;3.09;100.00;100462.98;1771164;81;20219;-51
2021/03/05 05:39:24;;;;;;;;;;;;;;;3.01;100.00;100469.70;1768255;81;21360;-52
2021/03/05 05:41:52;;;;;;;;;;;;;;;3.03;100.00;100475.86;1771206;81;20236;-52
2021/03/05 05:44:20;;;;;;;;;;;;;;;3.09;100.00;100476.23;1771693;81;20220;-52
2021/03/05 05:46:47;;;;;;;;;;;;;;;3.13;100.00;100484.61;1772348;81;20218;-52
2021/03/05 05:49:15;;;;;;;;;;;;;;;3.21;100.00;100485.88;1772273;81;20244;-53
2021/03/05 05:51:42;;;;;;;;;;;;;;;3.28;100.00;100484.92;1772386;81;22120;-51
2021/03/05 05:54:10;;;;;;;;;;;;;;;3.38;100.00;100485.72;1736434;81;20149;-51
2021/03/05 05:56:40;;;;;;;;;;;;;;;3.52;100.00;100497.50;1772594;81;20214;-52
2021/03/05 05:59:08;;;;;;;;;;;;;;;3.62;100.00;100500.94;1760511;81;20268;-52
2021/03/05 06:01:35;;;;;;;;;;;;;;;3.69;100.00;100507.50;1760685;81;20217;-52
2021/03/05 06:04:04;;;;;;;;;;;;;;;3.72;100.00;100518.06;1760591;81;21378;-51
2021/03/05 06:06:31;;;;;;;;;;;;;;;3.77;100.00;100519.78;1760590;81;20229;-51
2021/03/05 06:09:00;;;;;;;;;;;;;;;3.85;100.00;100533.83;1760628;81;20220;-52
2021/03/05 06:11:39;;;;;;;;;;;;;;;3.91;100.00;100531.56;1760738;81;20224;-51
2021/03/05 06:14:11;;;;;;;;;;;;;;;3.99;100.00;100530.59;1760822;81;20220;-52
2021/03/05 06:16:52;;;;;;;;;;;;;;;4.18;100.00;100541.42;1760727;81;21145;-52
2021/03/05 06:19:21;;;;;;;;;;;;;;;4.37;100.00;100538.98;1760756;81;20157;-51
2021/03/05 06:21:48;;;;;;;;;;;;;;;4.54;100.00;100545.42;1763135;81;20543;-52
2021/03/05 06:24:15;;;;;;;;;;;;;;;4.62;100.00;100541.31;1764054;81;20225;-52
2021/03/05 06:26:59;;;;;;;;;;;;;;;4.68;100.00;100529.30;1763962;81;20244;-52
2021/03/05 06:29:44;;;;;;;;;;;;;;;4.78;100.00;100538.45;1764094;81;21906;-52
2021/03/05 06:32:14;;;;;;;;;;;;;;;4.83;100.00;100533.50;1763886;81;20284;-52
2021/03/05 06:34:46;;;;;;;;;;;;;;;4.90;100.00;100530.75;1763986;81;20224;-51
2021/03/05 06:37:14;;;;;;;;;;;;;;;4.96;99.83;100536.84;1763987;81;20262;-51
2021/03/05 06:39:41;;;;;;;;;;;;;;;5.00;98.99;100533.70;1764063;81;20476;-51
2021/03/05 06:42:11;;;;;;;;;;;;;;;5.04;98.54;100543.38;1764078;81;21554;-53
2021/03/05 06:44:43;;;;;;;;;;;;;;;5.07;98.21;100544.66;1748227;81;20592;-52
2021/03/05 06:47:18;;;;;;;;;;;;;;;5.16;98.31;100544.97;1737174;82;20226;-52
2021/03/05 06:49:47;;;;;;;;;;;;;;;5.24;98.02;100559.47;1737083;82;20217;-52
2021/03/05 06:52:15;;;;;;;;;;;;;;;5.28;97.62;100555.85;1740233;81;20477;-52
2021/03/05 06:54:43;;;;;;;;;;;;;;;5.33;97.56;100547.34;1767441;81;21194;-52
2021/03/05 06:57:11;;;;;;;;;;;;;;;5.40;97.24;100560.95;1767402;81;20236;-52
2021/03/05 06:59:42;;;;;;;;;;;;;;;5.47;96.94;100554.22;1767580;81;20264;-53
2021/03/05 07:02:17;;;;;;;;;;;;;;;5.56;96.68;100551.39;1767436;81;20224;-53
2021/03/05 07:04:51;;;;;;;;;;;;;;;5.69;96.08;100546.30;1767554;81;20157;-53
2021/03/05 07:07:17;;;;;;;;;;;;;;;5.87;95.67;100545.53;1767086;81;21363;-53
2021/03/05 07:09:50;;;;;;;;;;;;;;;6.07;95.31;100548.27;1767326;81;21160;-53
2021/03/05 07:12:21;;;;;;;;;;;;;;;6.26;94.53;100541.68;1767496;81;20256;-52
2021/03/05 07:14:51;;;;;;;;;;;;;;;6.45;92.35;100549.29;1767510;81;20255;-51
2021/03/05 07:17:19;;;;;;;;;;;;;;;6.57;88.54;100556.14;1763620;81;20311;-52
2021/03/05 07:19:46;;;;;;;;;;;;;;;6.66;87.71;100551.07;1767534;81;21208;-51
2021/03/05 07:22:13;;;;;;;;;;;;;;;6.69;86.42;100556.33;1767448;80;20450;-52
2021/03/05 07:24:40;;;;;;;;;;;;;;;6.65;84.28;100546.66;1736360;81;20275;-52
2021/03/05 07:27:09;;;;;;;;;;;;;;;6.54;83.35;100560.20;1764139;81;20304;-52
2021/03/05 07:29:38;;;;;;;;;;;;;;;6.48;82.79;100559.02;1763820;81;20232;-52
2021/03/05 07:32:27;;;;;;;;;;;;;;;6.46;82.20;100556.37;1764299;81;22115;-53
2021/03/05 07:35:19;;;;;;;;;;;;;;;6.50;81.18;100548.73;1750447;81;20248;-53
2021/03/05 07:37:49;;;;;;;;;;;;;;;6.54;80.92;100555.77;1764244;81;20212;-51
2021/03/05 07:40:17;;;;;;;;;;;;;;;6.63;80.10;100557.80;1772498;81;20257;-51
2021/03/05 07:42:44;;;;;;;;;;;;;;;6.70;80.49;100558.08;1767463;81;20491;-51
2021/03/05 07:45:13;;;;;;;;;;;;;;;6.79;80.24;100561.89;1742644;81;21511;-52
2021/03/05 07:47:48;;;;;;;;;;;;;;;6.87;80.25;100565.25;1748746;81;20267;-52
2021/03/05 07:50:22;;;;;;;;;;;;;;;6.92;79.81;100558.48;1764569;81;20232;-52
2021/03/05 07:52:49;;;;;;;;;;;;;;;6.90;79.44;100561.65;1767176;80;20267;-52
2021/03/05 07:55:37;;;;;;;;;;;;;;;6.92;79.49;100558.93;1746655;81;20223;-52
2021/03/05 07:58:05;;;;;;;;;;;;;;;6.97;78.92;100552.59;1736964;82;21402;-52
2021/03/05 08:00:44;;;;;;;;;;;;;;;7.06;78.85;100572.83;1736966;82;20235;-53
2021/03/05 08:03:12;;;;;;;;;;;;;;;7.13;78.76;100567.77;1737095;82;20230;-51
2021/03/05 08:05:45;;;;;;;;;;;;;;;7.16;78.28;100563.69;1736974;82;20267;-55
2021/03/05 08:08:18;;;;;;;;;;;;;;;7.23;78.46;100558.23;1737107;82;20243;-53
2021/03/05 08:10:48;;;;;;;;;;;;;;;7.31;78.10;100556.23;1736937;82;21333;-53
2021/03/05 08:13:50;;;;;;;;;;;;;;;7.40;77.92;100552.00;1736847;82;20493;-52
2021/03/05 08:16:31;;;;;;;;;;;;;;;7.41;77.20;100549.78;1736858;82;20226;-52
2021/03/05 08:19:08;;;;;;;;;;;;;;;7.40;76.87;100551.14;1736347;82;20270;-52
2021/03/05 08:21:57;;;;;;;;;;;;;;;7.30;76.74;100554.05;1735865;81;20269;-53
2021/03/05 08:24:31;;;;;;;;;;;;;;;7.25;76.86;100559.92;1736044;82;21725;-52
2021/03/05 08:27:07;;;;;;;;;;;;;;;7.16;76.80;100561.02;1735951;82;20316;-53
2021/03/05 08:30:08;;;;;;;;;;;;;;;7.08;76.88;100559.00;1736421;82;20301;-52
2021/03/05 08:32:39;;;;;;;;;;;;;;;7.00;77.36;100561.84;1736308;82;20408;-52
2021/03/05 08:35:08;;;;;;;;;;;;;;;6.97;77.64;100557.06;1736614;82;20226;-52
2021/03/05 08:37:37;;;;;;;;;;;;;;;6.94;77.57;100559.77;1736434;82;21215;-51
2021/03/05 08:40:14;;;;;;;;;;;;;;;6.93;77.83;100566.02;1736935;82;20231;-54
2021/03/05 08:42:44;;;;;;;;;;;;;;;6.93;77.94;100562.02;1736816;82;20290;-51
2021/03/05 08:45:20;;;;;;;;;;;;;;;6.94;78.16;100565.10;1761643;81;20232;-52
2021/03/05 08:47:52;;;;;;;;;;;;;;;6.96;78.36;100565.94;1767477;81;20232;-52
2021/03/05 08:50:22;;;;;;;;;;;;;;;7.00;78.32;100560.98;1767530;81;22272;-53
2021/03/05 08:52:50;;;;;;;;;;;;;;;7.04;78.29;100561.33;1767403;81;20713;-52
2021/03/05 08:55:20;;;;;;;;;;;;;;;7.09;78.15;100566.09;1767421;81;20236;-52
2021/03/05 08:57:52;;;;;;;;;;;;;;;7.17;78.00;100568.11;1767408;81;20271;-51
2021/03/05 09:00:21;;;;;;;;;;;;;;;7.29;77.74;100571.41;1767384;81;20244;-53
2021/03/05 09:02:49;;;;;;;;;;;;;;;7.38;77.59;100572.50;1767565;81;22187;-52
2021/03/05 09:05:25;;;;;;;;;;;;;;;7.52;77.15;100574.85;1767080;81;38528;-53
2021/03/05 09:07:54;;;;;;;;;;;;;;;7.59;76.43;100582.22;1767474;81;20221;-52
2021/03/05 09:10:25;;;;;;;;;;;;;;;7.60;76.15;100574.63;1767484;81;20295;-52
2021/03/05 09:12:59;;;;;;;;;;;;;;;7.62;76.20;100575.47;1764897;81;20252;-53
2021/03/05 09:15:28;;;;;;;;;;;;;;;7.66;75.85;100573.60;1767358;81;22334;-53
2021/03/05 09:17:56;;;;;;;;;;;;;;;7.67;75.78;100575.36;1767327;81;20220;-52
2021/03/05 09:20:28;;;;;;;;;;;;;;;7.66;75.54;100568.27;1767436;81;20252;-53
2021/03/05 09:22:55;;;;;;;;;;;;;;;7.64;75.79;100572.33;1767012;80;20221;-52
2021/03/05 09:25:23;;;;;;;;;;;;;;;7.66;75.98;100575.83;1767433;81;20224;-52
2021/03/05 09:27:55;;;;;;;;;;;;;;;7.64;75.98;100569.66;1767456;81;21217;-52
2021/03/05 09:30:25;;;;;;;;;;;;;;;7.63;76.23;100573.25;1767420;81;20680;-52
2021/03/05 09:32:57;;;;;;;;;;;;;;;7.68;76.19;100578.44;1767312;81;20232;-52
2021/03/05 09:35:26;;;;;;;;;;;;;;;7.78;76.29;100577.30;1767383;81;20228;-53
2021/03/05 09:37:54;;;;;;;;;;;;;;;7.94;75.97;100583.55;1767475;81;20220;-51
2021/03/05 09:40:23;;;;;;;;;;;;;;;8.05;75.61;100584.59;1767398;81;21434;-52
2021/03/05 09:42:56;;;;;;;;;;;;;;;8.09;75.40;100586.29;1767362;81;20216;-52
2021/03/05 09:45:46;;;;;;;;;;;;;;;8.15;74.57;100581.62;1740332;81;20286;-52
2021/03/05 09:48:31;;;;;;;;;;;;;;;8.14;74.33;100586.55;1740175;81;20241;-51
2021/03/05 09:51:02;;;;;;;;;;;;;;;8.06;74.27;100584.57;1737159;82;20289;-51
2021/03/05 09:53:31;;;;;;;;;;;;;;;8.06;74.48;100587.68;1737128;82;21416;-53
2021/03/05 09:56:03;;;;;;;;;;;;;;;8.08;74.53;100589.87;1737051;82;20223;-53
2021/03/05 09:58:30;;;;;;;;;;;;;;;8.12;74.39;100590.20;1736925;82;20226;-52
2021/03/05 10:00:58;;;;;;;;;;;;;;;8.21;74.21;100596.62;1736915;82;20347;-52
2021/03/05 10:03:26;;;;;;;;;;;;;;;8.31;74.25;100589.23;1737086;82;20506;-52
2021/03/05 10:05:54;;;;;;;;;;;;;;;8.43;73.92;100592.01;1737187;82;22396;-52
2021/03/05 10:08:26;;;;;;;;;;;;;;;8.50;73.46;100590.08;1737016;82;20222;-52
2021/03/05 10:10:57;;;;;;;;;;;;;;;8.53;73.31;100589.98;1736806;81;20219;-52
2021/03/05 10:13:48;;;;;;;;;;;;;;;8.55;73.16;100595.70;1737037;82;20226;-52
2021/03/05 10:16:24;;;;;;;;;;;;;;;8.55;72.99;100605.50;1748928;81;20239;-51
2021/03/05 10:19:05;;;;;;;;;;;;;;;8.50;73.06;100596.28;1758939;81;21164;-53
2021/03/05 10:21:47;;;;;;;;;;;;;;;8.50;73.32;100596.28;1767365;80;20245;-52
2021/03/05 10:24:19;;;;;;;;;;;;;;;8.55;73.45;100594.38;1767528;81;20271;-52
2021/03/05 10:27:21;;;;;;;;;;;;;;;8.63;73.29;100597.27;1767278;81;20228;-52
2021/03/05 10:29:52;;;;;;;;;;;;;;;8.69;73.08;100590.40;1767644;81;20820;-51
2021/03/05 10:32:25;;;;;;;;;;;;;;;8.79;72.49;100597.23;1767565;81;21357;-53
2021/03/05 10:34:54;;;;;;;;;;;;;;;8.75;72.12;100599.59;1767397;81;20228;-51
2021/03/05 10:37:22;;;;;;;;;;;;;;;8.78;72.30;100604.84;1759549;81;20237;-52
2021/03/05 10:39:50;;;;;;;;;;;;;;;8.79;72.07;100603.92;1750897;81;20223;-52
2021/03/05 10:42:18;;;;;;;;;;;;;;;8.80;71.87;100598.98;1758943;81;20259;-53
2021/03/05 10:44:47;;;;;;;;;;;;;;;8.84;71.86;100593.06;1747232;81;21550;-54
2021/03/05 10:47:19;;;;;;;;;;;;;;;8.85;71.77;100595.70;1736275;82;21126;-53
2021/03/05 10:49:47;;;;;;;;;;;;;;;8.89;71.86;100589.34;1736864;82;20325;-53
2021/03/05 10:52:16;;;;;;;;;;;;;;;8.94;71.67;100580.30;1736763;82;20226;-52
2021/03/05 10:54:45;;;;;;;;;;;;;;;8.97;71.63;100581.56;1736862;82;20247;-51
2021/03/05 10:57:13;;;;;;;;;;;;;;;8.99;71.37;100572.55;1736844;82;21113;-53
2021/03/05 10:59:41;;;;;;;;;;;;;;;9.04;71.31;100580.44;1736950;82;20481;-52
2021/03/05 11:02:08;;;;;;;;;;;;;;;9.07;71.04;100580.34;1737144;82;20222;-52
2021/03/05 11:04:36;;;;;;;;;;;;;;;9.05;71.14;100577.28;1737070;82;20276;-52
2021/03/05 11:07:04;;;;;;;;;;;;;;;9.06;71.04;100567.89;1737185;82;20490;-52
2021/03/05 11:09:31;;;;;;;;;;;;;;;9.08;71.14;100566.04;1737076;82;21212;-52
2021/03/05 11:11:59;;;;;;;;;;;;;;;9.12;70.82;100574.85;1737019;82;20218;-52
2021/03/05 11:14:27;;;;;;;;;;;;;;;9.17;71.05;100575.58;1736968;82;20222;-51
2021/03/05 11:16:55;;;;;;;;;;;;;;;9.24;71.11;100574.92;1737249;81;20230;-51
2021/03/05 11:19:23;;;;;;;;;;;;;;;9.33;70.88;100579.95;1740725;81;20226;-52
2021/03/05 11:21:52;;;;;;;;;;;;;;;9.35;70.70;100573.23;1736954;81;22195;-52
2021/03/05 11:24:19;;;;;;;;;;;;;;;9.38;70.72;100572.65;1736840;82;20270;-53
2021/03/05 11:26:46;;;;;;;;;;;;;;;9.41;70.47;100569.90;1738205;81;20215;-52
2021/03/05 11:29:14;;;;;;;;;;;;;;;9.42;70.65;100573.44;1736879;82;20356;-53
2021/03/05 11:31:42;;;;;;;;;;;;;;;9.44;70.68;100575.59;1749651;81;20270;-53
2021/03/05 11:34:10;;;;;;;;;;;;;;;9.46;70.47;100575.97;1748475;81;22115;-53
2021/03/05 11:36:37;;;;;;;;;;;;;;;9.43;70.47;100576.08;1748035;81;20215;-53
2021/03/05 11:39:05;;;;;;;;;;;;;;;9.41;70.77;100573.91;1744232;81;20219;-53
2021/03/05 11:41:33;;;;;;;;;;;;;;;9.43;70.79;100573.40;1737003;82;20218;-53
2021/03/05 11:44:04;;;;;;;;;;;;;;;9.39;70.54;100569.05;1750620;81;20292;-53
2021/03/05 11:46:31;;;;;;;;;;;;;;;9.39;70.69;100567.70;1747403;81;21484;-53
2021/03/05 11:48:58;;;;;;;;;;;;;;;9.42;70.88;100572.98;1759322;81;20236;-52
2021/03/05 11:51:26;;;;;;;;;;;;;;;9.50;70.89;100568.69;1747110;81;20300;-52
2021/03/05 11:53:55;;;;;;;;;;;;;;;9.53;70.60;100576.64;1761733;81;20220;-53
2021/03/05 11:56:22;;;;;;;;;;;;;;;9.47;70.64;100566.13;1752207;81;20235;-52
2021/03/05 11:58:49;;;;;;;;;;;;;;;9.40;70.85;100568.60;1741725;81;22581;-52
2021/03/05 12:01:16;;;;;;;;;;;;;;;9.33;71.20;100571.93;1738451;81;20214;-52
2021/03/05 12:03:44;;;;;;;;;;;;;;;9.31;71.54;100576.46;1751093;81;20245;-53
2021/03/05 12:06:11;;;;;;;;;;;;;;;9.35;71.45;100578.11;1744709;81;20243;-53
2021/03/05 12:08:41;;;;;;;;;;;;;;;9.34;71.35;100576.36;1755240;81;20288;-53
2021/03/05 12:11:08;;;;;;;;;;;;;;;9.33;71.41;100575.95;1744833;81;21388;-53
2021/03/05 12:13:36;;;;;;;;;;;;;;;9.31;71.45;100572.45;1749120;81;20278;-52
2021/03/05 12:16:04;;;;;;;;;;;;;;;9.28;71.58;100566.75;1750119;81;20222;-53
2021/03/05 12:18:32;;;;;;;;;;;;;;;9.32;71.56;100572.86;1750858;81;20223;-53
2021/03/05 12:21:00;;;;;;;;;;;;;;;9.37;71.47;100570.90;1755679;81;20224;-52
2021/03/05 12:23:30;;;;;;;;;;;;;;;9.41;71.39;100575.25;1755949;81;21253;-53
2021/03/05 12:25:58;;;;;;;;;;;;;;;9.45;71.28;100569.31;1749921;81;20638;-52
2021/03/05 12:28:26;;;;;;;;;;;;;;;9.45;71.02;100570.20;1716237;81;20224;-53
2021/03/05 12:30:54;;;;;;;;;;;;;;;9.47;71.22;100566.13;1748410;81;20407;-52
2021/03/05 12:33:21;;;;;;;;;;;;;;;9.52;70.96;100567.31;1755232;81;20420;-53
2021/03/05 12:35:49;;;;;;;;;;;;;;;9.52;70.89;100565.53;1749242;81;21554;-52
2021/03/05 12:38:18;;;;;;;;;;;;;;;9.48;70.94;100564.34;1757655;81;20282;-52
2021/03/05 12:40:48;;;;;;;;;;;;;;;9.46;71.10;100566.60;1706963;81;20218;-52
2021/03/05 12:43:20;;;;;;;;;;;;;;;9.46;70.96;100570.62;1664134;81;20769;-53
2021/03/05 12:45:51;;;;;;;;;;;;;;;9.44;70.99;100571.13;1760631;81;20271;-53
2021/03/05 12:48:22;;;;;;;;;;;;;;;9.46;70.99;100570.62;1732459;81;21383;-52
2021/03/05 12:50:50;;;;;;;;;;;;;;;9.49;70.94;100572.77;1749538;81;20247;-52
2021/03/05 12:53:18;;;;;;;;;;;;;;;9.52;70.76;100574.01;1752341;79;20305;-53
2021/03/05 12:55:46;;;;;;;;;;;;;;;9.54;70.65;100570.81;1754269;81;20321;-53